sensor_id;sensor_type;location;lat;lon;timestamp;temperature;humidity
7445;DHT22;3764;48.126;11.594;2023-07-16T00:02:02;24.60;99.90
7445;DHT22;3764;48.126;11.594;2023-07-16T00:04:30;24.50;99.90
7445;DHT22;3764;48.126;11.594;2023-07-16T00:06:59;24.40;99.90
7445;DHT22;3764;48.126;11.594;2023-07-16T00:09:26;24.30;99.90
7445;DHT22;3764;48.126;11.594;2023-07-16T00:11:53;24.20;99.90
7445;DHT22;3764;48.126;11.594;2023-07-16T00:14:20;24.20;99.90
7445;DHT22;3764;48.126;11.594;2023-07-16T00:16:47;24.20;99.90
7445;DHT22;3764;48.126;11.594;2023-07-16T00:19:15;24.10;99.90
7445;DHT22;3764;48.126;11.594;2023-07-16T00:21:42;24.00;99.90
7445;DHT22;3764;48.126;11.594;2023-07-16T00:24:10;23.90;99.90
7445;DHT22;3764;48.126;11.594;2023-07-16T00:26:37;23.90;99.90
7445;DHT22;3764;48.126;11.594;2023-07-16T00:29:04;23.90;99.90
7445;DHT22;3764;48.126;11.594;2023-07-16T00:31:31;23.80;99.90
7445;DHT22;3764;48.126;11.594;2023-07-16T00:33:58;23.80;99.90
7445;DHT22;3764;48.126;11.594;2023-07-16T00:36:25;23.80;99.90
7445;DHT22;3764;48.126;11.594;2023-07-16T00:38:52;23.80;99.90
7445;DHT22;3764;48.126;11.594;2023-07-16T00:41:21;23.80;99.90
7445;DHT22;3764;48.126;11.594;2023-07-16T00:43:48;23.70;99.90
7445;DHT22;3764;48.126;11.594;2023-07-16T00:46:15;23.70;99.90
7445;DHT22;3764;48.126;11.594;2023-07-16T00:48:43;23.70;99.90
7445;DHT22;3764;48.126;11.594;2023-07-16T00:51:10;23.70;99.90
7445;DHT22;3764;48.126;11.594;2023-07-16T00:53:39;23.70;99.90
7445;DHT22;3764;48.126;11.594;2023-07-16T00:56:07;23.70;99.90
7445;DHT22;3764;48.126;11.594;2023-07-16T00:58:36;23.60;99.90
7445;DHT22;3764;48.126;11.594;2023-07-16T01:01:03;23.60;99.90
7445;DHT22;3764;48.126;11.594;2023-07-16T01:03:30;23.50;99.90
7445;DHT22;3764;48.126;11.594;2023-07-16T01:06:02;23.60;99.90
7445;DHT22;3764;48.126;11.594;2023-07-16T01:08:33;23.50;99.90
7445;DHT22;3764;48.126;11.594;2023-07-16T01:11:03;23.50;99.90
7445;DHT22;3764;48.126;11.594;2023-07-16T01:13:30;23.50;99.90
7445;DHT22;3764;48.126;11.594;2023-07-16T01:15:59;23.50;99.90
7445;DHT22;3764;48.126;11.594;2023-07-16T01:18:26;23.40;99.90
7445;DHT22;3764;48.126;11.594;2023-07-16T01:20:53;23.40;99.90
7445;DHT22;3764;48.126;11.594;2023-07-16T01:23:39;23.40;99.90
7445;DHT22;3764;48.126;11.594;2023-07-16T01:26:32;23.40;99.90
7445;DHT22;3764;48.126;11.594;2023-07-16T01:29:32;23.40;99.90
7445;DHT22;3764;48.126;11.594;2023-07-16T01:32:01;23.30;99.90
7445;DHT22;3764;48.126;11.594;2023-07-16T01:34:31;23.20;99.90
7445;DHT22;3764;48.126;11.594;2023-07-16T01:36:59;23.20;99.90
7445;DHT22;3764;48.126;11.594;2023-07-16T01:39:27;23.20;99.90
7445;DHT22;3764;48.126;11.594;2023-07-16T01:41:54;23.20;99.90
7445;DHT22;3764;48.126;11.594;2023-07-16T01:44:21;23.20;99.90
7445;DHT22;3764;48.126;11.594;2023-07-16T01:47:04;23.20;99.90
7445;DHT22;3764;48.126;11.594;2023-07-16T01:49:32;23.10;99.90
7445;DHT22;3764;48.126;11.594;2023-07-16T01:52:00;23.10;99.90
7445;DHT22;3764;48.126;11.594;2023-07-16T01:54:27;23.10;99.90
7445;DHT22;3764;48.126;11.594;2023-07-16T01:56:54;23.10;99.90
7445;DHT22;3764;48.126;11.594;2023-07-16T01:59:21;23.00;99.90
7445;DHT22;3764;48.126;11.594;2023-07-16T02:01:50;23.00;99.90
7445;DHT22;3764;48.126;11.594;2023-07-16T02:04:17;23.00;99.90
7445;DHT22;3764;48.126;11.594;2023-07-16T02:06:44;23.00;99.90
7445;DHT22;3764;48.126;11.594;2023-07-16T02:09:13;23.00;99.90
7445;DHT22;3764;48.126;11.594;2023-07-16T02:11:40;23.00;99.90
7445;DHT22;3764;48.126;11.594;2023-07-16T02:14:08;22.90;99.90
7445;DHT22;3764;48.126;11.594;2023-07-16T02:16:35;22.90;99.90
7445;DHT22;3764;48.126;11.594;2023-07-16T02:19:04;22.90;99.90
7445;DHT22;3764;48.126;11.594;2023-07-16T02:21:31;22.90;99.90
7445;DHT22;3764;48.126;11.594;2023-07-16T02:23:58;22.90;99.90
7445;DHT22;3764;48.126;11.594;2023-07-16T02:26:25;22.90;99.90
7445;DHT22;3764;48.126;11.594;2023-07-16T02:28:52;22.80;99.90
7445;DHT22;3764;48.126;11.594;2023-07-16T02:31:19;22.80;99.90
7445;DHT22;3764;48.126;11.594;2023-07-16T02:33:46;22.80;99.90
7445;DHT22;3764;48.126;11.594;2023-07-16T02:36:15;22.90;99.90
7445;DHT22;3764;48.126;11.594;2023-07-16T02:38:42;22.80;99.90
7445;DHT22;3764;48.126;11.594;2023-07-16T02:41:09;22.80;99.90
7445;DHT22;3764;48.126;11.594;2023-07-16T02:43:36;22.80;99.90
7445;DHT22;3764;48.126;11.594;2023-07-16T02:46:03;22.80;99.90
7445;DHT22;3764;48.126;11.594;2023-07-16T02:48:30;22.80;99.90
7445;DHT22;3764;48.126;11.594;2023-07-16T02:50:57;22.80;99.90
7445;DHT22;3764;48.126;11.594;2023-07-16T02:53:26;22.80;99.90
7445;DHT22;3764;48.126;11.594;2023-07-16T02:55:53;22.80;99.90
7445;DHT22;3764;48.126;11.594;2023-07-16T02:58:20;22.80;99.90
7445;DHT22;3764;48.126;11.594;2023-07-16T03:00:47;22.80;99.90
7445;DHT22;3764;48.126;11.594;2023-07-16T03:03:14;22.70;99.90
7445;DHT22;3764;48.126;11.594;2023-07-16T03:05:41;22.70;99.90
7445;DHT22;3764;48.126;11.594;2023-07-16T03:08:08;22.70;99.90
7445;DHT22;3764;48.126;11.594;2023-07-16T03:10:37;22.70;99.90
7445;DHT22;3764;48.126;11.594;2023-07-16T03:13:04;22.70;99.90
7445;DHT22;3764;48.126;11.594;2023-07-16T03:15:31;22.70;99.90
7445;DHT22;3764;48.126;11.594;2023-07-16T03:17:58;22.70;99.90
7445;DHT22;3764;48.126;11.594;2023-07-16T03:20:25;22.70;99.90
7445;DHT22;3764;48.126;11.594;2023-07-16T03:22:52;22.70;99.90
7445;DHT22;3764;48.126;11.594;2023-07-16T03:25:19;22.70;99.90
7445;DHT22;3764;48.126;11.594;2023-07-16T03:27:48;22.70;99.90
7445;DHT22;3764;48.126;11.594;2023-07-16T03:30:15;22.70;99.90
7445;DHT22;3764;48.126;11.594;2023-07-16T03:32:42;22.70;99.90
7445;DHT22;3764;48.126;11.594;2023-07-16T03:35:09;22.70;99.90
7445;DHT22;3764;48.126;11.594;2023-07-16T03:37:36;22.70;99.90
7445;DHT22;3764;48.126;11.594;2023-07-16T03:40:13;22.70;99.90
7445;DHT22;3764;48.126;11.594;2023-07-16T03:42:41;22.70;99.90
7445;DHT22;3764;48.126;11.594;2023-07-16T03:45:10;22.70;99.90
7445;DHT22;3764;48.126;11.594;2023-07-16T03:47:38;22.60;99.90
7445;DHT22;3764;48.126;11.594;2023-07-16T03:50:06;22.60;99.90
7445;DHT22;3764;48.126;11.594;2023-07-16T03:52:33;22.60;99.90
7445;DHT22;3764;48.126;11.594;2023-07-16T03:55:00;22.60;99.90
7445;DHT22;3764;48.126;11.594;2023-07-16T03:57:28;22.60;99.90
7445;DHT22;3764;48.126;11.594;2023-07-16T03:59:55;22.50;99.90
7445;DHT22;3764;48.126;11.594;2023-07-16T04:02:25;22.50;99.90
7445;DHT22;3764;48.126;11.594;2023-07-16T04:04:52;22.50;99.90
7445;DHT22;3764;48.126;11.594;2023-07-16T04:07:19;22.50;99.90
7445;DHT22;3764;48.126;11.594;2023-07-16T04:09:46;22.50;99.90
7445;DHT22;3764;48.126;11.594;2023-07-16T04:12:13;22.50;99.90
7445;DHT22;3764;48.126;11.594;2023-07-16T04:14:40;22.50;99.90
7445;DHT22;3764;48.126;11.594;2023-07-16T04:17:08;22.50;99.90
7445;DHT22;3764;48.126;11.594;2023-07-16T04:19:36;22.50;99.90
7445;DHT22;3764;48.126;11.594;2023-07-16T04:22:04;22.50;99.90
7445;DHT22;3764;48.126;11.594;2023-07-16T04:24:31;22.50;99.90
7445;DHT22;3764;48.126;11.594;2023-07-16T04:26:58;22.50;99.90
7445;DHT22;3764;48.126;11.594;2023-07-16T04:29:25;22.50;99.90
7445;DHT22;3764;48.126;11.594;2023-07-16T04:31:52;22.50;99.90
7445;DHT22;3764;48.126;11.594;2023-07-16T04:34:19;22.40;99.90
7445;DHT22;3764;48.126;11.594;2023-07-16T04:36:48;22.30;99.90
7445;DHT22;3764;48.126;11.594;2023-07-16T04:39:15;22.20;99.90
7445;DHT22;3764;48.126;11.594;2023-07-16T04:41:42;22.20;99.90
7445;DHT22;3764;48.126;11.594;2023-07-16T04:44:09;22.00;99.90
7445;DHT22;3764;48.126;11.594;2023-07-16T04:46:36;21.80;99.90
7445;DHT22;3764;48.126;11.594;2023-07-16T04:49:05;21.60;99.90
7445;DHT22;3764;48.126;11.594;2023-07-16T04:51:32;21.60;99.90
7445;DHT22;3764;48.126;11.594;2023-07-16T04:54:00;21.60;99.90
7445;DHT22;3764;48.126;11.594;2023-07-16T04:56:27;21.60;99.90
7445;DHT22;3764;48.126;11.594;2023-07-16T04:58:54;21.60;99.90
7445;DHT22;3764;48.126;11.594;2023-07-16T05:01:21;21.50;99.90
7445;DHT22;3764;48.126;11.594;2023-07-16T05:03:48;21.50;99.90
7445;DHT22;3764;48.126;11.594;2023-07-16T05:06:15;21.50;99.90
7445;DHT22;3764;48.126;11.594;2023-07-16T05:08:42;21.50;99.90
7445;DHT22;3764;48.126;11.594;2023-07-16T05:11:12;21.50;99.90
7445;DHT22;3764;48.126;11.594;2023-07-16T05:13:39;21.50;99.90
7445;DHT22;3764;48.126;11.594;2023-07-16T05:16:06;21.50;99.90
7445;DHT22;3764;48.126;11.594;2023-07-16T05:18:33;21.50;99.90
7445;DHT22;3764;48.126;11.594;2023-07-16T05:21:00;21.60;99.90
7445;DHT22;3764;48.126;11.594;2023-07-16T05:23:27;21.50;99.90
7445;DHT22;3764;48.126;11.594;2023-07-16T05:25:54;21.50;99.90
7445;DHT22;3764;48.126;11.594;2023-07-16T05:28:24;21.50;99.90
7445;DHT22;3764;48.126;11.594;2023-07-16T05:30:58;21.30;99.90
7445;DHT22;3764;48.126;11.594;2023-07-16T05:33:25;21.30;99.90
7445;DHT22;3764;48.126;11.594;2023-07-16T05:35:52;21.20;99.90
7445;DHT22;3764;48.126;11.594;2023-07-16T05:38:19;21.20;99.90
7445;DHT22;3764;48.126;11.594;2023-07-16T05:40:46;21.10;99.90
7445;DHT22;3764;48.126;11.594;2023-07-16T05:43:13;21.00;99.90
7445;DHT22;3764;48.126;11.594;2023-07-16T05:45:42;21.00;99.90
7445;DHT22;3764;48.126;11.594;2023-07-16T05:48:09;20.90;99.90
7445;DHT22;3764;48.126;11.594;2023-07-16T05:50:37;20.80;99.90
7445;DHT22;3764;48.126;11.594;2023-07-16T05:53:04;20.80;99.90
7445;DHT22;3764;48.126;11.594;2023-07-16T05:55:31;20.70;99.90
7445;DHT22;3764;48.126;11.594;2023-07-16T05:57:58;20.70;99.90
7445;DHT22;3764;48.126;11.594;2023-07-16T06:00:25;20.70;99.90
7445;DHT22;3764;48.126;11.594;2023-07-16T06:02:54;20.70;99.90
7445;DHT22;3764;48.126;11.594;2023-07-16T06:05:21;20.70;99.90
7445;DHT22;3764;48.126;11.594;2023-07-16T06:07:50;20.60;99.90
7445;DHT22;3764;48.126;11.594;2023-07-16T06:10:17;20.70;99.90
7445;DHT22;3764;48.126;11.594;2023-07-16T06:12:44;20.70;99.90
7445;DHT22;3764;48.126;11.594;2023-07-16T06:15:11;20.70;99.90
7445;DHT22;3764;48.126;11.594;2023-07-16T06:17:38;20.70;99.90
7445;DHT22;3764;48.126;11.594;2023-07-16T06:20:08;20.70;99.90
7445;DHT22;3764;48.126;11.594;2023-07-16T06:22:35;20.70;99.90
7445;DHT22;3764;48.126;11.594;2023-07-16T06:25:02;20.70;99.90
7445;DHT22;3764;48.126;11.594;2023-07-16T06:27:30;20.70;99.90
7445;DHT22;3764;48.126;11.594;2023-07-16T06:29:57;20.70;99.90
7445;DHT22;3764;48.126;11.594;2023-07-16T06:32:24;20.80;99.90
7445;DHT22;3764;48.126;11.594;2023-07-16T06:34:51;20.90;99.90
7445;DHT22;3764;48.126;11.594;2023-07-16T06:37:20;20.90;99.90
7445;DHT22;3764;48.126;11.594;2023-07-16T06:39:49;21.00;99.90
7445;DHT22;3764;48.126;11.594;2023-07-16T06:42:16;21.00;99.90
7445;DHT22;3764;48.126;11.594;2023-07-16T06:44:43;21.00;99.90
7445;DHT22;3764;48.126;11.594;2023-07-16T06:47:10;21.00;99.90
7445;DHT22;3764;48.126;11.594;2023-07-16T06:49:37;21.10;99.90
7445;DHT22;3764;48.126;11.594;2023-07-16T06:52:06;21.10;99.90
7445;DHT22;3764;48.126;11.594;2023-07-16T06:54:34;21.20;99.90
7445;DHT22;3764;48.126;11.594;2023-07-16T06:57:02;21.10;99.90
7445;DHT22;3764;48.126;11.594;2023-07-16T06:59:29;21.10;99.90
7445;DHT22;3764;48.126;11.594;2023-07-16T07:01:56;21.10;99.90
7445;DHT22;3764;48.126;11.594;2023-07-16T07:04:23;21.20;99.90
7445;DHT22;3764;48.126;11.594;2023-07-16T07:06:50;21.20;99.90
7445;DHT22;3764;48.126;11.594;2023-07-16T07:09:17;21.20;99.90
7445;DHT22;3764;48.126;11.594;2023-07-16T07:11:45;21.20;99.90
7445;DHT22;3764;48.126;11.594;2023-07-16T07:14:13;21.20;99.90
7445;DHT22;3764;48.126;11.594;2023-07-16T07:16:40;21.20;99.90
7445;DHT22;3764;48.126;11.594;2023-07-16T07:19:08;21.20;99.90
7445;DHT22;3764;48.126;11.594;2023-07-16T07:21:35;21.30;99.90
7445;DHT22;3764;48.126;11.594;2023-07-16T07:24:02;21.30;99.90
7445;DHT22;3764;48.126;11.594;2023-07-16T07:26:30;21.40;99.90
7445;DHT22;3764;48.126;11.594;2023-07-16T07:28:58;21.40;99.90
7445;DHT22;3764;48.126;11.594;2023-07-16T07:31:25;21.40;99.90
7445;DHT22;3764;48.126;11.594;2023-07-16T07:33:52;21.40;99.90
7445;DHT22;3764;48.126;11.594;2023-07-16T07:36:20;21.50;99.90
7445;DHT22;3764;48.126;11.594;2023-07-16T07:38:47;21.50;99.90
7445;DHT22;3764;48.126;11.594;2023-07-16T07:41:14;21.60;99.90
7445;DHT22;3764;48.126;11.594;2023-07-16T07:43:41;21.60;99.90
7445;DHT22;3764;48.126;11.594;2023-07-16T07:46:10;21.50;99.90
7445;DHT22;3764;48.126;11.594;2023-07-16T07:48:37;21.50;99.90
7445;DHT22;3764;48.126;11.594;2023-07-16T07:51:04;21.60;99.90
7445;DHT22;3764;48.126;11.594;2023-07-16T07:53:31;21.60;99.90
7445;DHT22;3764;48.126;11.594;2023-07-16T07:55:58;21.60;99.90
7445;DHT22;3764;48.126;11.594;2023-07-16T07:58:25;21.60;99.90
7445;DHT22;3764;48.126;11.594;2023-07-16T08:00:52;21.70;99.90
7445;DHT22;3764;48.126;11.594;2023-07-16T08:03:21;21.60;99.90
7445;DHT22;3764;48.126;11.594;2023-07-16T08:05:48;21.70;99.90
7445;DHT22;3764;48.126;11.594;2023-07-16T08:08:16;21.70;99.90
7445;DHT22;3764;48.126;11.594;2023-07-16T08:10:43;21.70;99.90
7445;DHT22;3764;48.126;11.594;2023-07-16T08:13:11;21.70;99.90
7445;DHT22;3764;48.126;11.594;2023-07-16T08:15:38;21.70;99.90
7445;DHT22;3764;48.126;11.594;2023-07-16T08:18:06;21.70;99.90
7445;DHT22;3764;48.126;11.594;2023-07-16T08:20:35;21.70;99.90
7445;DHT22;3764;48.126;11.594;2023-07-16T08:23:03;21.70;99.90
7445;DHT22;3764;48.126;11.594;2023-07-16T08:25:30;21.70;99.90
7445;DHT22;3764;48.126;11.594;2023-07-16T08:27:57;21.80;99.90
7445;DHT22;3764;48.126;11.594;2023-07-16T08:30:24;21.80;99.90
7445;DHT22;3764;48.126;11.594;2023-07-16T08:32:51;21.80;99.90
7445;DHT22;3764;48.126;11.594;2023-07-16T08:35:18;21.80;99.90
7445;DHT22;3764;48.126;11.594;2023-07-16T08:37:47;21.90;99.90
7445;DHT22;3764;48.126;11.594;2023-07-16T08:40:14;21.80;99.90
7445;DHT22;3764;48.126;11.594;2023-07-16T08:42:44;21.90;99.90
7445;DHT22;3764;48.126;11.594;2023-07-16T08:45:12;21.90;99.90
7445;DHT22;3764;48.126;11.594;2023-07-16T08:47:41;21.90;99.90
7445;DHT22;3764;48.126;11.594;2023-07-16T08:50:09;21.80;99.90
7445;DHT22;3764;48.126;11.594;2023-07-16T08:52:37;21.80;99.90
7445;DHT22;3764;48.126;11.594;2023-07-16T08:55:07;21.70;99.90
7445;DHT22;3764;48.126;11.594;2023-07-16T08:57:35;21.80;99.90
7445;DHT22;3764;48.126;11.594;2023-07-16T09:00:03;21.80;99.90
7445;DHT22;3764;48.126;11.594;2023-07-16T09:02:31;21.80;99.90
7445;DHT22;3764;48.126;11.594;2023-07-16T09:04:59;21.90;99.90
7445;DHT22;3764;48.126;11.594;2023-07-16T09:07:26;21.90;99.90
7445;DHT22;3764;48.126;11.594;2023-07-16T09:09:56;22.00;99.90
7445;DHT22;3764;48.126;11.594;2023-07-16T09:12:27;22.00;99.90
7445;DHT22;3764;48.126;11.594;2023-07-16T09:14:55;22.00;99.90
7445;DHT22;3764;48.126;11.594;2023-07-16T09:17:23;22.00;99.90
7445;DHT22;3764;48.126;11.594;2023-07-16T09:19:50;22.10;99.90
7445;DHT22;3764;48.126;11.594;2023-07-16T09:22:18;22.10;99.90
7445;DHT22;3764;48.126;11.594;2023-07-16T09:24:46;22.20;99.90
7445;DHT22;3764;48.126;11.594;2023-07-16T09:27:13;22.30;99.90
7445;DHT22;3764;48.126;11.594;2023-07-16T09:29:42;22.30;99.90
7445;DHT22;3764;48.126;11.594;2023-07-16T09:32:09;22.30;99.90
7445;DHT22;3764;48.126;11.594;2023-07-16T09:34:36;22.30;99.90
7445;DHT22;3764;48.126;11.594;2023-07-16T09:37:04;22.40;99.90
7445;DHT22;3764;48.126;11.594;2023-07-16T09:39:32;22.40;99.90
7445;DHT22;3764;48.126;11.594;2023-07-16T09:41:59;22.50;99.90
7445;DHT22;3764;48.126;11.594;2023-07-16T09:44:29;22.60;99.90
7445;DHT22;3764;48.126;11.594;2023-07-16T09:46:58;22.60;99.90
7445;DHT22;3764;48.126;11.594;2023-07-16T09:49:28;22.70;99.90
7445;DHT22;3764;48.126;11.594;2023-07-16T09:51:57;22.80;99.90
7445;DHT22;3764;48.126;11.594;2023-07-16T09:54:25;22.80;99.90
7445;DHT22;3764;48.126;11.594;2023-07-16T09:56:56;22.90;99.90
7445;DHT22;3764;48.126;11.594;2023-07-16T09:59:27;22.90;99.90
7445;DHT22;3764;48.126;11.594;2023-07-16T10:01:55;22.90;99.90
7445;DHT22;3764;48.126;11.594;2023-07-16T10:04:23;22.90;99.90
7445;DHT22;3764;48.126;11.594;2023-07-16T10:06:55;22.90;99.90
7445;DHT22;3764;48.126;11.594;2023-07-16T10:09:35;22.90;99.90
7445;DHT22;3764;48.126;11.594;2023-07-16T10:12:16;23.00;99.90
7445;DHT22;3764;48.126;11.594;2023-07-16T10:14:45;23.00;99.90
7445;DHT22;3764;48.126;11.594;2023-07-16T10:17:14;23.10;99.90
7445;DHT22;3764;48.126;11.594;2023-07-16T10:19:51;23.20;99.90
7445;DHT22;3764;48.126;11.594;2023-07-16T10:22:18;23.30;99.90
7445;DHT22;3764;48.126;11.594;2023-07-16T10:24:55;23.30;99.90
7445;DHT22;3764;48.126;11.594;2023-07-16T10:27:29;23.30;99.90
7445;DHT22;3764;48.126;11.594;2023-07-16T10:29:57;23.40;99.90
7445;DHT22;3764;48.126;11.594;2023-07-16T10:32:27;23.40;99.90
7445;DHT22;3764;48.126;11.594;2023-07-16T10:34:56;23.50;99.90
7445;DHT22;3764;48.126;11.594;2023-07-16T10:37:24;23.50;99.90
7445;DHT22;3764;48.126;11.594;2023-07-16T10:39:53;23.50;99.90
7445;DHT22;3764;48.126;11.594;2023-07-16T10:42:22;23.50;99.90
7445;DHT22;3764;48.126;11.594;2023-07-16T10:44:49;23.50;99.90
7445;DHT22;3764;48.126;11.594;2023-07-16T10:47:19;23.50;99.90
7445;DHT22;3764;48.126;11.594;2023-07-16T10:49:48;23.60;99.90
7445;DHT22;3764;48.126;11.594;2023-07-16T10:52:16;23.50;99.90
7445;DHT22;3764;48.126;11.594;2023-07-16T10:54:43;23.50;99.90
7445;DHT22;3764;48.126;11.594;2023-07-16T10:57:11;23.50;99.90
7445;DHT22;3764;48.126;11.594;2023-07-16T10:59:39;23.50;99.90
7445;DHT22;3764;48.126;11.594;2023-07-16T11:02:10;23.50;99.90
7445;DHT22;3764;48.126;11.594;2023-07-16T11:04:38;23.50;99.90
7445;DHT22;3764;48.126;11.594;2023-07-16T11:07:06;23.50;99.90
7445;DHT22;3764;48.126;11.594;2023-07-16T11:09:40;23.50;99.90
7445;DHT22;3764;48.126;11.594;2023-07-16T11:12:09;23.50;99.90
7445;DHT22;3764;48.126;11.594;2023-07-16T11:14:37;23.60;99.90
7445;DHT22;3764;48.126;11.594;2023-07-16T11:17:05;23.60;99.90
7445;DHT22;3764;48.126;11.594;2023-07-16T11:19:34;23.60;99.90
7445;DHT22;3764;48.126;11.594;2023-07-16T11:22:02;23.60;99.90
7445;DHT22;3764;48.126;11.594;2023-07-16T11:24:38;23.60;99.90
7445;DHT22;3764;48.126;11.594;2023-07-16T11:27:06;23.70;99.90
7445;DHT22;3764;48.126;11.594;2023-07-16T11:29:39;23.70;99.90
7445;DHT22;3764;48.126;11.594;2023-07-16T11:32:08;23.70;99.90
7445;DHT22;3764;48.126;11.594;2023-07-16T11:34:36;23.70;99.90
7445;DHT22;3764;48.126;11.594;2023-07-16T11:37:10;23.70;99.90
7445;DHT22;3764;48.126;11.594;2023-07-16T11:39:39;23.80;99.90
7445;DHT22;3764;48.126;11.594;2023-07-16T11:42:06;23.80;99.90
7445;DHT22;3764;48.126;11.594;2023-07-16T11:44:34;23.90;99.90
7445;DHT22;3764;48.126;11.594;2023-07-16T11:47:02;23.90;99.90
7445;DHT22;3764;48.126;11.594;2023-07-16T11:49:29;24.00;99.90
7445;DHT22;3764;48.126;11.594;2023-07-16T11:51:57;24.00;99.90
7445;DHT22;3764;48.126;11.594;2023-07-16T11:54:24;24.10;99.90
7445;DHT22;3764;48.126;11.594;2023-07-16T11:56:53;24.10;99.90
7445;DHT22;3764;48.126;11.594;2023-07-16T11:59:20;24.20;99.90
7445;DHT22;3764;48.126;11.594;2023-07-16T12:01:48;24.20;99.90
7445;DHT22;3764;48.126;11.594;2023-07-16T12:04:16;24.20;99.90
7445;DHT22;3764;48.126;11.594;2023-07-16T12:06:43;24.20;99.90
7445;DHT22;3764;48.126;11.594;2023-07-16T12:09:11;24.20;99.90
7445;DHT22;3764;48.126;11.594;2023-07-16T12:11:38;24.20;99.90
7445;DHT22;3764;48.126;11.594;2023-07-16T12:14:07;24.20;99.90
7445;DHT22;3764;48.126;11.594;2023-07-16T12:16:34;24.20;99.90
7445;DHT22;3764;48.126;11.594;2023-07-16T12:19:01;24.30;99.90
7445;DHT22;3764;48.126;11.594;2023-07-16T12:21:28;24.30;99.90
7445;DHT22;3764;48.126;11.594;2023-07-16T12:23:55;24.40;99.90
7445;DHT22;3764;48.126;11.594;2023-07-16T12:26:22;24.40;99.90
7445;DHT22;3764;48.126;11.594;2023-07-16T12:28:49;24.40;99.90
7445;DHT22;3764;48.126;11.594;2023-07-16T12:31:18;24.40;99.90
7445;DHT22;3764;48.126;11.594;2023-07-16T12:33:46;24.40;99.90
7445;DHT22;3764;48.126;11.594;2023-07-16T12:36:13;24.40;99.90
7445;DHT22;3764;48.126;11.594;2023-07-16T12:38:40;24.50;99.90
7445;DHT22;3764;48.126;11.594;2023-07-16T12:41:08;24.60;99.90
7445;DHT22;3764;48.126;11.594;2023-07-16T12:43:35;24.60;99.90
7445;DHT22;3764;48.126;11.594;2023-07-16T12:46:03;24.70;99.90
7445;DHT22;3764;48.126;11.594;2023-07-16T12:48:32;24.80;99.90
7445;DHT22;3764;48.126;11.594;2023-07-16T12:50:59;24.80;99.90
7445;DHT22;3764;48.126;11.594;2023-07-16T12:53:26;24.80;99.90
7445;DHT22;3764;48.126;11.594;2023-07-16T12:55:53;24.80;99.90
7445;DHT22;3764;48.126;11.594;2023-07-16T12:58:21;24.80;99.90
7445;DHT22;3764;48.126;11.594;2023-07-16T13:00:48;24.80;99.90
7445;DHT22;3764;48.126;11.594;2023-07-16T13:03:15;24.80;99.90
7445;DHT22;3764;48.126;11.594;2023-07-16T13:05:44;24.70;99.90
7445;DHT22;3764;48.126;11.594;2023-07-16T13:08:12;24.70;99.90
7445;DHT22;3764;48.126;11.594;2023-07-16T13:10:40;24.70;99.90
7445;DHT22;3764;48.126;11.594;2023-07-16T13:13:07;24.70;99.90
7445;DHT22;3764;48.126;11.594;2023-07-16T13:15:35;24.80;99.90
7445;DHT22;3764;48.126;11.594;2023-07-16T13:18:02;24.80;99.90
7445;DHT22;3764;48.126;11.594;2023-07-16T13:20:29;24.80;99.90
7445;DHT22;3764;48.126;11.594;2023-07-16T13:22:58;24.90;99.90
7445;DHT22;3764;48.126;11.594;2023-07-16T13:25:26;24.90;99.90
7445;DHT22;3764;48.126;11.594;2023-07-16T13:27:55;24.90;99.90
7445;DHT22;3764;48.126;11.594;2023-07-16T13:30:22;24.90;99.90
7445;DHT22;3764;48.126;11.594;2023-07-16T13:32:49;24.90;99.90
7445;DHT22;3764;48.126;11.594;2023-07-16T13:35:16;24.90;99.90
7445;DHT22;3764;48.126;11.594;2023-07-16T13:37:44;24.90;99.90
7445;DHT22;3764;48.126;11.594;2023-07-16T13:40:13;24.90;99.90
7445;DHT22;3764;48.126;11.594;2023-07-16T13:42:40;24.90;99.90
7445;DHT22;3764;48.126;11.594;2023-07-16T13:45:08;25.00;99.90
7445;DHT22;3764;48.126;11.594;2023-07-16T13:47:35;25.00;99.90
7445;DHT22;3764;48.126;11.594;2023-07-16T13:50:02;25.00;99.90
7445;DHT22;3764;48.126;11.594;2023-07-16T13:52:30;24.90;99.90
7445;DHT22;3764;48.126;11.594;2023-07-16T13:54:57;24.90;99.90
7445;DHT22;3764;48.126;11.594;2023-07-16T13:57:26;24.90;99.90
7445;DHT22;3764;48.126;11.594;2023-07-16T13:59:53;24.90;99.90
7445;DHT22;3764;48.126;11.594;2023-07-16T14:02:20;24.90;99.90
7445;DHT22;3764;48.126;11.594;2023-07-16T14:04:47;24.90;99.90
7445;DHT22;3764;48.126;11.594;2023-07-16T14:07:14;24.90;99.90
7445;DHT22;3764;48.126;11.594;2023-07-16T14:09:41;24.80;99.90
7445;DHT22;3764;48.126;11.594;2023-07-16T14:12:09;24.80;99.90
7445;DHT22;3764;48.126;11.594;2023-07-16T14:14:37;24.80;99.90
7445;DHT22;3764;48.126;11.594;2023-07-16T14:17:05;24.80;99.90
7445;DHT22;3764;48.126;11.594;2023-07-16T14:19:32;24.80;99.90
7445;DHT22;3764;48.126;11.594;2023-07-16T14:21:59;24.80;99.90
7445;DHT22;3764;48.126;11.594;2023-07-16T14:24:26;24.80;99.90
7445;DHT22;3764;48.126;11.594;2023-07-16T14:26:53;24.80;99.90
7445;DHT22;3764;48.126;11.594;2023-07-16T14:29:20;24.80;99.90
7445;DHT22;3764;48.126;11.594;2023-07-16T14:31:49;24.80;99.90
7445;DHT22;3764;48.126;11.594;2023-07-16T14:34:16;24.80;99.90
7445;DHT22;3764;48.126;11.594;2023-07-16T14:36:43;24.80;99.90
7445;DHT22;3764;48.126;11.594;2023-07-16T14:39:10;24.80;99.90
7445;DHT22;3764;48.126;11.594;2023-07-16T14:41:37;24.80;99.90
7445;DHT22;3764;48.126;11.594;2023-07-16T14:44:04;24.80;99.90
7445;DHT22;3764;48.126;11.594;2023-07-16T14:46:32;24.80;99.90
7445;DHT22;3764;48.126;11.594;2023-07-16T14:49:00;24.80;99.90
7445;DHT22;3764;48.126;11.594;2023-07-16T14:51:27;24.80;99.90
7445;DHT22;3764;48.126;11.594;2023-07-16T14:53:55;24.80;99.90
7445;DHT22;3764;48.126;11.594;2023-07-16T14:56:22;24.80;99.90
7445;DHT22;3764;48.126;11.594;2023-07-16T14:58:49;24.80;99.90
7445;DHT22;3764;48.126;11.594;2023-07-16T15:01:17;24.80;99.90
7445;DHT22;3764;48.126;11.594;2023-07-16T15:03:44;24.80;99.90
7445;DHT22;3764;48.126;11.594;2023-07-16T15:06:12;24.80;99.90
7445;DHT22;3764;48.126;11.594;2023-07-16T15:08:40;24.80;99.90
7445;DHT22;3764;48.126;11.594;2023-07-16T15:11:07;24.80;99.90
7445;DHT22;3764;48.126;11.594;2023-07-16T15:13:34;24.80;99.90
7445;DHT22;3764;48.126;11.594;2023-07-16T15:16:01;24.80;99.90
7445;DHT22;3764;48.126;11.594;2023-07-16T15:18:29;24.80;99.90
7445;DHT22;3764;48.126;11.594;2023-07-16T15:20:57;24.80;99.90
7445;DHT22;3764;48.126;11.594;2023-07-16T15:23:27;24.80;99.90
7445;DHT22;3764;48.126;11.594;2023-07-16T15:25:54;24.70;99.90
7445;DHT22;3764;48.126;11.594;2023-07-16T15:28:22;24.80;99.90
7445;DHT22;3764;48.126;11.594;2023-07-16T15:30:49;24.80;99.90
7445;DHT22;3764;48.126;11.594;2023-07-16T15:33:16;24.80;99.90
7445;DHT22;3764;48.126;11.594;2023-07-16T15:35:45;24.80;99.90
7445;DHT22;3764;48.126;11.594;2023-07-16T15:38:12;24.80;99.90
7445;DHT22;3764;48.126;11.594;2023-07-16T15:40:40;24.80;99.90
7445;DHT22;3764;48.126;11.594;2023-07-16T15:43:07;24.80;99.90
7445;DHT22;3764;48.126;11.594;2023-07-16T15:45:34;24.70;99.90
7445;DHT22;3764;48.126;11.594;2023-07-16T15:48:01;24.70;99.90
7445;DHT22;3764;48.126;11.594;2023-07-16T15:50:28;24.60;99.90